Time;durP1;ratioP1;P1;durP2;ratioP2;P2;SDS_P1;SDS_P2;PMS_P1;PMS_P2;Temp;Humidity;BMP_temperature;BMP_pressure;BME280_temperature;BME280_humidity;BME280_pressure;Samples;Min_cycle;Max_cycle;Signal;HPM_P1;HPM_P2
2023/05/30 00:02:23;326332.00;1.09;563.18;0.00;0.00;0.62;;;;;18.50;1.00;;;;;;2256319;61;996;-86
2023/05/30 00:04:51;379828.00;1.27;655.13;0.00;0.00;0.62;;;;;18.50;1.00;;;;;;2256348;61;1306;-85
2023/05/30 00:07:18;317933.00;1.06;548.75;0.00;0.00;0.62;;;;;18.70;1.00;;;;;;2256393;61;1027;-86
2023/05/30 00:09:45;397531.00;1.33;685.56;0.00;0.00;0.62;;;;;18.60;1.00;;;;;;2256229;61;1023;-86
2023/05/30 00:12:12;682239.00;2.27;1176.45;109181.00;0.36;189.42;;;;;18.60;1.00;;;;;;2256217;61;1912;-86
2023/05/30 00:14:40;294307.00;0.98;508.13;0.00;0.00;0.62;;;;;18.50;1.00;;;;;;2256261;61;1299;-87
2023/05/30 00:17:07;467394.00;1.56;805.71;45272.00;0.15;79.01;;;;;18.40;1.00;;;;;;2256285;61;1146;-85
2023/05/30 00:19:35;338293.00;1.13;583.74;0.00;0.00;0.62;;;;;18.50;1.00;;;;;;2256241;61;1225;-86
2023/05/30 00:22:04;342425.00;1.14;590.84;0.00;0.00;0.62;;;;;18.60;1.00;;;;;;2256273;61;1079;-86
2023/05/30 00:24:31;431974.00;1.44;744.78;0.00;0.00;0.62;;;;;18.50;1.00;;;;;;2256173;61;1344;-86
2023/05/30 00:26:58;445468.00;1.48;767.99;0.00;0.00;0.62;;;;;18.60;1.00;;;;;;2256229;61;952;-86
2023/05/30 00:29:25;273769.00;0.91;472.82;0.00;0.00;0.62;;;;;18.60;1.00;;;;;;2256280;61;1091;-87
2023/05/30 00:31:51;404347.00;1.35;697.28;0.00;0.00;0.62;;;;;18.40;1.00;;;;;;2256255;61;1915;-86
2023/05/30 00:34:18;330839.00;1.10;570.93;0.00;0.00;0.62;;;;;18.20;1.00;;;;;;2256206;61;1125;-86
2023/05/30 00:36:45;474604.00;1.58;818.11;28035.00;0.09;49.18;;;;;18.20;1.00;;;;;;2256120;61;1286;-85
2023/05/30 00:39:14;506232.00;1.69;872.55;78759.00;0.26;136.89;;;;;18.10;1.00;;;;;;2256240;61;1139;-84
2023/05/30 00:41:41;558582.00;1.86;962.76;17169.00;0.06;30.37;;;;;18.00;1.00;;;;;;2256102;61;1064;-85
2023/05/30 00:44:08;277608.00;0.93;479.42;64998.00;0.22;113.12;;;;;17.80;1.00;;;;;;2256154;61;1156;-86
2023/05/30 00:46:35;623923.00;2.08;1075.55;124957.00;0.42;216.63;;;;;17.80;1.00;;;;;;2256141;61;1343;-85
2023/05/30 00:49:02;1067068.00;3.56;1851.63;249414.00;0.83;430.94;;;;;17.70;1.00;;;;;;2256185;61;1062;-87
2023/05/30 00:51:30;672321.00;2.24;1159.27;95087.00;0.32;165.09;;;;;17.70;1.00;;;;;;2256161;61;1998;-85
2023/05/30 00:53:57;504196.00;1.68;869.05;85634.00;0.29;148.77;;;;;17.60;1.00;;;;;;2256181;61;983;-86
2023/05/30 00:56:27;587114.00;1.96;1011.98;96456.00;0.32;167.45;;;;;17.60;1.00;;;;;;2256264;61;1414;-86
2023/05/30 00:58:55;547350.00;1.82;943.39;93124.00;0.31;161.70;;;;;17.60;1.00;;;;;;2256015;61;1150;-86
2023/05/30 01:01:23;556654.00;1.86;959.43;81392.00;0.27;141.44;;;;;17.50;1.00;;;;;;2256064;61;1112;-85
2023/05/30 01:03:51;578518.00;1.93;997.14;120943.00;0.40;209.71;;;;;17.60;1.00;;;;;;2256146;61;1145;-87
2023/05/30 01:06:20;575821.00;1.92;992.49;89539.00;0.30;155.51;;;;;17.70;1.00;;;;;;2256076;61;1357;-85
2023/05/30 01:08:47;625102.00;2.08;1077.58;78460.00;0.26;136.38;;;;;17.60;1.00;;;;;;2256084;61;1158;-86
2023/05/30 01:11:30;621816.00;2.07;1071.90;87359.00;0.29;151.75;;;;;17.80;1.00;;;;;;2256126;61;2007;-86
2023/05/30 01:14:11;320765.00;1.07;553.61;0.00;0.00;0.62;;;;;17.80;1.00;;;;;;2256037;61;1979;-86
2023/05/30 01:16:45;279583.00;0.93;482.82;0.00;0.00;0.62;;;;;17.70;1.00;;;;;;2256030;61;1382;-86
2023/05/30 01:19:46;224217.00;0.75;387.60;0.00;0.00;0.62;;;;;17.70;1.00;;;;;;2256095;61;1162;-86
2023/05/30 01:22:22;181929.00;0.61;314.81;44168.00;0.15;77.10;;;;;17.80;1.00;;;;;;2255977;61;1135;-85
2023/05/30 01:25:05;289242.00;0.96;499.43;0.00;0.00;0.62;;;;;17.80;1.00;;;;;;2255822;61;1443;-86
2023/05/30 01:27:44;181110.00;0.60;313.40;0.00;0.00;0.62;;;;;17.70;1.00;;;;;;2256174;61;986;-86
2023/05/30 01:30:14;52402.00;0.17;91.34;0.00;0.00;0.62;;;;;17.70;1.00;;;;;;2256131;61;1875;-86
2023/05/30 01:32:41;184353.00;0.61;318.99;0.00;0.00;0.62;;;;;17.70;1.00;;;;;;2256173;61;2001;-85
2023/05/30 01:35:22;314781.00;1.05;543.33;0.00;0.00;0.62;;;;;17.80;1.00;;;;;;2256203;61;1319;-85
2023/05/30 01:37:48;150381.00;0.50;260.46;30008.00;0.10;52.60;;;;;17.90;1.00;;;;;;2256235;61;995;-87
2023/05/30 01:40:22;131484.00;0.44;227.89;0.00;0.00;0.62;;;;;18.00;1.00;;;;;;2256262;61;1078;-86
2023/05/30 01:42:53;49019.00;0.16;85.49;0.00;0.00;0.62;;;;;18.00;1.00;;;;;;2256172;61;1100;-85
2023/05/30 01:45:30;141505.00;0.47;245.17;0.00;0.00;0.62;;;;;18.10;1.00;;;;;;2256021;61;1396;-85
2023/05/30 01:48:03;91881.00;0.31;159.56;0.00;0.00;0.62;;;;;18.30;1.00;;;;;;2256024;61;2175;-86
2023/05/30 01:50:37;35012.00;0.12;61.26;0.00;0.00;0.62;;;;;18.40;1.00;;;;;;2255992;61;1011;-85
2023/05/30 01:53:10;0.00;0.00;0.62;0.00;0.00;0.62;;;;;18.60;1.00;;;;;;2255778;61;1916;-86
2023/05/30 01:55:42;41077.00;0.14;71.75;0.00;0.00;0.62;;;;;18.80;1.00;;;;;;2255959;61;1464;-86
2023/05/30 01:58:10;2974.00;0.01;5.77;0.00;0.00;0.62;;;;;18.90;1.00;;;;;;2255685;61;1055;-87
2023/05/30 02:00:39;60916.00;0.20;106.06;0.00;0.00;0.62;;;;;18.80;1.00;;;;;;2255928;61;1099;-85
2023/05/30 02:03:06;10049.00;0.03;18.03;0.00;0.00;0.62;;;;;18.60;1.00;;;;;;2255943;61;1083;-87
2023/05/30 02:05:33;32881.00;0.11;57.57;0.00;0.00;0.62;;;;;18.50;1.00;;;;;;2255849;61;1291;-86
2023/05/30 02:07:59;231311.00;0.77;399.80;0.00;0.00;0.62;;;;;18.50;1.00;;;;;;2255872;61;1106;-86
2023/05/30 02:10:26;74982.00;0.25;130.37;0.00;0.00;0.62;;;;;18.50;1.00;;;;;;2255836;61;1000;-87
2023/05/30 02:12:53;427691.00;1.43;737.42;23601.00;0.08;41.51;;;;;18.60;1.00;;;;;;2255789;61;1992;-88
2023/05/30 02:15:20;35566.00;0.12;62.22;0.00;0.00;0.62;;;;;18.50;1.00;;;;;;2255809;61;1287;-85
2023/05/30 02:17:48;81808.00;0.27;142.16;0.00;0.00;0.62;;;;;18.10;1.00;;;;;;2255893;61;1096;-86
2023/05/30 02:20:15;199364.00;0.66;344.83;42492.00;0.14;74.20;;;;;17.70;1.00;;;;;;2255816;61;956;-86
2023/05/30 02:22:42;114251.00;0.38;198.16;0.00;0.00;0.62;;;;;17.80;1.00;;;;;;2255814;61;1075;-87
2023/05/30 02:25:10;74937.00;0.25;130.29;0.00;0.00;0.62;;;;;18.10;1.00;;;;;;2255829;61;1261;-87
2023/05/30 02:27:37;11080.00;0.04;19.82;0.00;0.00;0.62;;;;;18.30;1.00;;;;;;2255821;61;1167;-86
2023/05/30 02:30:04;27234.00;0.09;47.80;0.00;0.00;0.62;;;;;18.40;1.00;;;;;;2255709;61;1086;-86
2023/05/30 02:32:31;5388.00;0.02;9.96;0.00;0.00;0.62;;;;;18.50;1.00;;;;;;2255702;61;1907;-86
2023/05/30 02:35:00;132272.00;0.44;229.25;0.00;0.00;0.62;;;;;18.50;1.00;;;;;;2255719;61;1427;-85
2023/05/30 02:37:27;42963.00;0.14;75.01;0.00;0.00;0.62;;;;;18.50;1.00;;;;;;2256174;61;1893;-86
2023/05/30 02:39:54;145589.00;0.49;252.21;9810.00;0.03;17.62;;;;;18.30;1.00;;;;;;2256399;61;1026;-87
2023/05/30 02:42:21;69580.00;0.23;121.03;0.00;0.00;0.62;;;;;18.30;1.00;;;;;;2256405;61;915;-87
2023/05/30 02:44:48;66851.00;0.22;116.32;0.00;0.00;0.62;;;;;18.30;1.00;;;;;;2256413;61;1400;-88
2023/05/30 02:47:15;147556.00;0.49;255.60;44302.00;0.15;77.33;;;;;18.10;1.00;;;;;;2256456;61;1083;-85
2023/05/30 02:49:41;36726.00;0.12;64.22;0.00;0.00;0.62;;;;;18.00;1.00;;;;;;2256484;61;1030;-85
2023/05/30 02:52:10;144078.00;0.48;249.60;0.00;0.00;0.62;;;;;17.90;1.00;;;;;;2256313;61;1924;-87
2023/05/30 02:54:38;640498.00;2.13;1104.20;86278.00;0.29;149.88;;;;;17.70;1.00;;;;;;2256433;61;1258;-87
2023/05/30 02:57:06;179430.00;0.60;310.51;0.00;0.00;0.62;;;;;17.70;1.00;;;;;;2256418;61;1598;-87
2023/05/30 02:59:33;79148.00;0.26;137.57;0.00;0.00;0.62;;;;;17.70;1.00;;;;;;2256316;61;1223;-85
2023/05/30 03:02:00;275135.00;0.92;475.17;0.00;0.00;0.62;;;;;17.60;1.00;;;;;;2256379;61;934;-85
2023/05/30 03:04:27;47476.00;0.16;82.82;0.00;0.00;0.62;;;;;17.60;1.00;;;;;;2256266;61;1561;-83
2023/05/30 03:06:54;216487.00;0.72;374.30;0.00;0.00;0.62;;;;;17.50;1.00;;;;;;2256392;61;1059;-86
2023/05/30 03:09:22;64422.00;0.21;112.12;0.00;0.00;0.62;;;;;17.50;1.00;;;;;;2256423;61;1208;-84
2023/05/30 03:11:49;277585.00;0.93;479.39;0.00;0.00;0.62;;;;;17.50;1.00;;;;;;2256267;61;1918;-86
2023/05/30 03:14:16;173760.00;0.58;300.74;0.00;0.00;0.62;;;;;17.60;1.00;;;;;;2256368;61;1047;-85
2023/05/30 03:16:42;218849.00;0.73;378.36;0.00;0.00;0.62;;;;;17.60;1.00;;;;;;2256289;61;1780;-87
2023/05/30 03:19:09;258414.00;0.86;446.42;0.00;0.00;0.62;;;;;17.60;1.00;;;;;;2256421;61;940;-87
2023/05/30 03:21:37;211858.00;0.71;366.33;0.00;0.00;0.62;;;;;17.50;1.00;;;;;;2256316;61;1111;-85
2023/05/30 03:24:05;119407.00;0.40;207.06;0.00;0.00;0.62;;;;;17.70;1.00;;;;;;2256347;61;1053;-85
2023/05/30 03:26:33;184984.00;0.62;320.07;0.00;0.00;0.62;;;;;17.80;1.00;;;;;;2256279;61;1406;-86
2023/05/30 03:29:00;141978.00;0.47;245.98;0.00;0.00;0.62;;;;;17.80;1.00;;;;;;2255444;61;2262;-86
2023/05/30 03:31:29;213558.00;0.71;369.26;0.00;0.00;0.62;;;;;17.60;1.00;;;;;;2255782;61;1087;-86
2023/05/30 03:33:56;32088.00;0.11;56.20;0.00;0.00;0.62;;;;;17.60;1.00;;;;;;2256282;61;2011;-87
2023/05/30 03:36:24;81892.00;0.27;142.31;0.00;0.00;0.62;;;;;17.50;1.00;;;;;;2256223;61;1372;-87
2023/05/30 03:38:51;80975.00;0.27;140.72;0.00;0.00;0.62;;;;;17.50;1.00;;;;;;2256277;61;1084;-87
2023/05/30 03:41:18;129919.00;0.43;225.19;0.00;0.00;0.62;;;;;17.60;1.00;;;;;;2256215;61;1648;-87
2023/05/30 03:43:46;255537.00;0.85;441.47;0.00;0.00;0.62;;;;;17.40;1.00;;;;;;2256199;61;1060;-86
2023/05/30 03:46:14;75509.00;0.25;131.28;0.00;0.00;0.62;;;;;17.30;1.00;;;;;;2256255;61;1357;-86
2023/05/30 03:48:41;129549.00;0.43;224.55;0.00;0.00;0.62;;;;;17.30;1.00;;;;;;2256007;61;1049;-86
2023/05/30 03:51:08;187926.00;0.63;325.14;17399.00;0.06;30.77;;;;;17.30;1.00;;;;;;2256166;61;1193;-86
2023/05/30 03:53:35;128535.00;0.43;222.80;22398.00;0.07;39.42;;;;;17.40;1.00;;;;;;2256168;61;1918;-86
2023/05/30 03:56:01;130333.00;0.43;225.90;0.00;0.00;0.62;;;;;17.50;1.00;;;;;;2256170;61;1307;-85
2023/05/30 03:58:28;115950.00;0.39;201.10;0.00;0.00;0.62;;;;;17.40;1.00;;;;;;2256054;61;1132;-86
2023/05/30 04:01:00;198300.00;0.66;343.00;0.00;0.00;0.62;;;;;17.40;1.00;;;;;;2256175;61;1110;-87
2023/05/30 04:03:28;79116.00;0.26;137.51;0.00;0.00;0.62;;;;;17.50;1.00;;;;;;2256190;61;1095;-88
2023/05/30 04:05:56;143206.00;0.48;248.10;0.00;0.00;0.62;;;;;17.50;1.00;;;;;;2256148;61;1301;-86
2023/05/30 04:08:23;462958.00;1.54;798.07;57977.00;0.19;100.98;;;;;17.60;1.00;;;;;;2256184;61;1228;-87
2023/05/30 04:10:50;115039.00;0.38;199.52;0.00;0.00;0.62;;;;;17.60;1.00;;;;;;2256111;61;1721;-85
2023/05/30 04:13:17;119268.00;0.40;206.82;0.00;0.00;0.62;;;;;17.60;1.00;;;;;;2256119;61;1990;-84
2023/05/30 04:15:43;85739.00;0.29;148.95;0.00;0.00;0.62;;;;;17.50;1.00;;;;;;2256115;61;1379;-86
2023/05/30 04:18:12;267515.00;0.89;462.07;0.00;0.00;0.62;;;;;17.60;1.00;;;;;;2256204;61;1134;-85
2023/05/30 04:20:38;185210.00;0.62;320.46;17626.00;0.06;31.16;;;;;17.50;1.00;;;;;;2256145;61;1027;-86
2023/05/30 04:23:06;108163.00;0.36;187.66;0.00;0.00;0.62;;;;;17.30;1.00;;;;;;2256163;61;1006;-86
2023/05/30 04:25:34;227502.00;0.76;393.25;0.00;0.00;0.62;;;;;17.30;1.00;;;;;;2256031;61;1403;-86
2023/05/30 04:28:01;199792.00;0.67;345.57;0.00;0.00;0.62;;;;;17.50;1.00;;;;;;2256156;61;1123;-86
2023/05/30 04:30:28;491771.00;1.64;847.66;92932.00;0.31;161.37;;;;;17.50;1.00;;;;;;2256050;61;985;-85
2023/05/30 04:32:55;134908.00;0.45;233.79;50263.00;0.17;87.64;;;;;17.50;1.00;;;;;;2256037;61;1908;-84
2023/05/30 04:35:23;5725.00;0.02;10.54;0.00;0.00;0.62;;;;;17.70;1.00;;;;;;2255889;61;1407;-85
2023/05/30 04:37:53;11970.00;0.04;21.36;0.00;0.00;0.62;;;;;17.80;1.00;;;;;;2256098;61;1067;-85
2023/05/30 04:40:20;125326.00;0.42;217.27;75.00;0.00;0.75;;;;;17.90;1.00;;;;;;2256129;61;1232;-85
2023/05/30 04:42:51;123386.00;0.41;213.92;0.00;0.00;0.62;;;;;18.00;1.00;;;;;;2255968;61;1001;-84
2023/05/30 04:45:18;65995.00;0.22;114.84;0.00;0.00;0.62;;;;;18.00;1.00;;;;;;2255901;61;1470;-84
2023/05/30 04:47:46;155176.00;0.52;268.73;30638.00;0.10;53.69;;;;;18.10;1.00;;;;;;2255929;61;998;-85
2023/05/30 04:50:14;130910.00;0.44;226.90;0.00;0.00;0.62;;;;;18.50;1.00;;;;;;2256019;61;1041;-86
2023/05/30 04:52:43;161169.00;0.54;279.05;0.00;0.00;0.62;;;;;18.40;1.00;;;;;;2255820;61;1995;-83
2023/05/30 04:55:10;85946.00;0.29;149.31;0.00;0.00;0.62;;;;;18.50;1.00;;;;;;2255890;61;1412;-84
2023/05/30 04:57:39;27175.00;0.09;47.69;0.00;0.00;0.62;;;;;18.60;1.00;;;;;;2255841;61;1154;-85
2023/05/30 05:00:10;82189.00;0.27;142.82;0.00;0.00;0.62;;;;;18.60;1.00;;;;;;2255967;61;1072;-84
2023/05/30 05:02:38;42282.00;0.14;73.84;0.00;0.00;0.62;;;;;18.80;1.00;;;;;;2255958;61;1052;-85
2023/05/30 05:05:06;25932.00;0.09;45.54;0.00;0.00;0.62;;;;;18.70;1.00;;;;;;2255827;61;1367;-86
2023/05/30 05:07:33;176206.00;0.59;304.96;0.00;0.00;0.62;;;;;18.40;1.00;;;;;;2255972;61;1020;-85
2023/05/30 05:10:02;196218.00;0.65;339.41;0.00;0.00;0.62;;;;;18.20;1.00;;;;;;2255882;61;1107;-84
2023/05/30 05:12:29;37664.00;0.13;65.85;0.00;0.00;0.62;;;;;18.40;1.00;;;;;;2255832;61;1927;-86
2023/05/30 05:14:57;83730.00;0.28;145.48;0.00;0.00;0.62;;;;;18.50;1.00;;;;;;2255966;61;1384;-83
2023/05/30 05:17:24;230420.00;0.77;398.27;58056.00;0.19;101.12;;;;;18.90;1.00;;;;;;2255922;61;1118;-83
2023/05/30 05:19:51;89757.00;0.30;155.89;0.00;0.00;0.62;;;;;19.10;1.00;;;;;;2255857;61;1148;-86
2023/05/30 05:22:21;50080.00;0.17;87.32;0.00;0.00;0.62;;;;;19.30;1.00;;;;;;2255875;61;1135;-83
2023/05/30 05:24:48;84260.00;0.28;146.40;0.00;0.00;0.62;;;;;19.40;1.00;;;;;;2255916;61;1350;-83
2023/05/30 05:27:16;167261.00;0.56;289.55;11601.00;0.04;20.72;;;;;19.60;1.00;;;;;;2255971;61;1072;-85
2023/05/30 05:29:43;158471.00;0.53;274.40;0.00;0.00;0.62;;;;;20.10;1.00;;;;;;2255872;61;1184;-84
2023/05/30 05:32:10;140946.00;0.47;244.20;0.00;0.00;0.62;;;;;19.90;1.00;;;;;;2255868;61;1094;-86
2023/05/30 05:34:37;170415.00;0.57;294.98;0.00;0.00;0.62;;;;;20.10;1.00;;;;;;2255815;61;2013;-87
2023/05/30 05:37:04;160708.00;0.54;278.26;0.00;0.00;0.62;;;;;20.20;1.00;;;;;;2255873;61;1025;-86
2023/05/30 05:39:30;142765.00;0.48;247.34;0.00;0.00;0.62;;;;;20.70;1.00;;;;;;2255897;61;1102;-86
2023/05/30 05:42:01;398825.00;1.33;687.79;0.00;0.00;0.62;;;;;21.10;1.00;;;;;;2255887;61;1071;-85
2023/05/30 05:44:30;82056.00;0.27;142.59;0.00;0.00;0.62;;;;;21.50;1.00;;;;;;2255901;61;1407;-85
2023/05/30 05:46:57;45321.00;0.15;79.09;0.00;0.00;0.62;;;;;22.30;1.00;;;;;;2255762;61;1123;-85
2023/05/30 05:49:24;71992.00;0.24;125.20;0.00;0.00;0.62;;;;;22.50;1.00;;;;;;2255820;61;1100;-86
2023/05/30 05:51:51;56175.00;0.19;97.86;0.00;0.00;0.62;;;;;22.90;1.00;;;;;;2255766;61;1115;-86
2023/05/30 05:54:17;233666.00;0.78;403.86;0.00;0.00;0.62;;;;;23.10;1.00;;;;;;2255807;61;2002;-86
2023/05/30 05:56:44;26038.00;0.09;45.72;0.00;0.00;0.62;;;;;23.10;1.00;;;;;;2255817;61;1314;-86
2023/05/30 05:59:12;14507.00;0.05;25.76;0.00;0.00;0.62;;;;;22.80;1.00;;;;;;2255817;61;1103;-86
2023/05/30 06:01:42;220410.00;0.73;381.05;0.00;0.00;0.62;;;;;23.20;1.00;;;;;;2255973;61;1129;-85
2023/05/30 06:04:11;17112.00;0.06;30.27;0.00;0.00;0.62;;;;;23.30;1.00;;;;;;2255856;61;1010;-86
2023/05/30 06:06:38;123112.00;0.41;213.45;0.00;0.00;0.62;;;;;23.80;1.00;;;;;;2255855;61;1391;-87
2023/05/30 06:09:05;86115.00;0.29;149.60;0.00;0.00;0.62;;;;;24.20;1.00;;;;;;2255855;61;1064;-88
2023/05/30 06:11:32;0.00;0.00;0.62;0.00;0.00;0.62;;;;;24.70;1.00;;;;;;2256171;61;1137;-86
2023/05/30 06:13:59;90414.00;0.30;157.02;0.00;0.00;0.62;;;;;24.90;1.00;;;;;;2256540;61;1999;-88
2023/05/30 06:16:26;173763.00;0.58;300.75;24531.00;0.08;43.12;;;;;24.70;1.00;;;;;;2256501;61;1666;-87
2023/05/30 06:18:54;177253.00;0.59;306.76;0.00;0.00;0.62;;;;;25.00;1.00;;;;;;2256591;61;1087;-88
2023/05/30 06:21:21;63784.00;0.21;111.02;0.00;0.00;0.62;;;;;25.50;1.00;;;;;;2256544;61;1043;-87
2023/05/30 06:23:48;0.00;0.00;0.62;0.00;0.00;0.62;;;;;25.50;1.00;;;;;;2256584;61;1005;-86
2023/05/30 06:26:14;55896.00;0.19;97.38;0.00;0.00;0.62;;;;;25.60;1.00;;;;;;2256634;61;1354;-86
2023/05/30 06:28:41;273182.00;0.91;471.82;27897.00;0.09;48.94;;;;;25.10;1.00;;;;;;2256511;61;1065;-86
2023/05/30 06:31:08;179457.00;0.60;310.55;0.00;0.00;0.62;;;;;24.90;1.00;;;;;;2256613;61;1063;-86
2023/05/30 06:33:35;73204.00;0.24;127.30;0.00;0.00;0.62;;;;;24.80;1.00;;;;;;2256652;61;2003;-86
2023/05/30 06:36:03;94939.00;0.32;164.84;0.00;0.00;0.62;;;;;24.50;1.00;;;;;;2256530;61;1461;-87
2023/05/30 06:38:30;301382.00;1.00;520.30;109098.00;0.36;189.27;;;;;24.30;1.00;;;;;;2256531;61;1110;-87
2023/05/30 06:40:57;185487.00;0.62;320.94;6020.00;0.02;11.05;;;;;24.80;1.00;;;;;;2256549;61;1130;-87
2023/05/30 06:43:24;387711.00;1.29;668.68;118119.00;0.39;204.84;;;;;25.10;1.00;;;;;;2256532;61;1134;-86
2023/05/30 06:45:51;186253.00;0.62;322.26;0.00;0.00;0.62;;;;;24.00;1.00;;;;;;2256722;61;1245;-87
2023/05/30 06:48:17;197033.00;0.66;340.82;0.00;0.00;0.62;;;;;23.30;1.00;;;;;;2256655;61;1106;-87
2023/05/30 06:50:44;240989.00;0.80;416.45;0.00;0.00;0.62;;;;;23.60;1.00;;;;;;2256605;61;1695;-87
2023/05/30 06:53:13;149610.00;0.50;259.14;0.00;0.00;0.62;;;;;23.30;1.00;;;;;;2256603;61;1995;-87
2023/05/30 06:55:39;174853.00;0.58;302.63;0.00;0.00;0.62;;;;;23.40;1.00;;;;;;2256585;61;1388;-88
2023/05/30 06:58:07;475953.00;1.59;820.43;121356.00;0.40;210.42;;;;;23.00;1.00;;;;;;2256446;61;1086;-88
2023/05/30 07:00:33;204764.00;0.68;354.12;0.00;0.00;0.62;;;;;22.80;1.00;;;;;;2256514;61;1059;-86
2023/05/30 07:03:01;222150.00;0.74;384.04;0.00;0.00;0.62;;;;;23.00;1.00;;;;;;2256545;61;1272;-87
2023/05/30 07:05:28;245915.00;0.82;424.93;0.00;0.00;0.62;;;;;23.50;1.00;;;;;;2256367;61;1375;-85
2023/05/30 07:07:55;240254.00;0.80;415.19;0.00;0.00;0.62;;;;;24.00;1.00;;;;;;2256538;61;1095;-87
2023/05/30 07:10:23;262402.00;0.87;453.28;30332.00;0.10;53.16;;;;;24.20;1.00;;;;;;2256489;61;1123;-86
2023/05/30 07:12:52;261634.00;0.87;451.96;52470.00;0.17;91.46;;;;;24.20;1.00;;;;;;2256507;61;1063;-85
2023/05/30 07:15:19;210371.00;0.70;363.77;10924.00;0.04;19.55;;;;;24.50;1.00;;;;;;2256342;61;2015;-86
2023/05/30 07:17:46;167908.00;0.56;290.66;0.00;0.00;0.62;;;;;24.70;1.00;;;;;;2256447;61;1250;-86
2023/05/30 07:20:13;208629.00;0.70;360.78;0.00;0.00;0.62;;;;;24.00;1.00;;;;;;2256343;61;1167;-87
2023/05/30 07:22:40;230376.00;0.77;398.20;27434.00;0.09;48.14;;;;;23.60;1.00;;;;;;2256049;61;1094;-84
2023/05/30 07:25:08;427080.00;1.42;736.36;37950.00;0.13;66.34;;;;;22.80;1.00;;;;;;2256262;61;1298;-87
2023/05/30 07:27:36;83153.00;0.28;144.48;0.00;0.00;0.62;;;;;22.70;1.00;;;;;;2256429;61;1169;-85
2023/05/30 07:30:03;258288.00;0.86;446.20;0.00;0.00;0.62;;;;;22.90;1.00;;;;;;2256457;61;1119;-85
2023/05/30 07:32:30;107069.00;0.36;185.77;0.00;0.00;0.62;;;;;22.80;1.00;;;;;;2256408;61;1067;-85
2023/05/30 07:34:57;128203.00;0.43;222.23;0.00;0.00;0.62;;;;;23.40;1.00;;;;;;2256257;61;1999;-86
2023/05/30 07:37:23;296405.00;0.99;511.74;0.00;0.00;0.62;;;;;22.90;1.00;;;;;;2256467;61;1032;-87
2023/05/30 07:39:50;277043.00;0.92;478.45;0.00;0.00;0.62;;;;;23.30;1.00;;;;;;2256409;61;1111;-84
2023/05/30 07:42:17;399286.00;1.33;688.58;35324.00;0.12;61.80;;;;;23.80;1.00;;;;;;2256362;61;1138;-84
2023/05/30 07:44:45;156302.00;0.52;270.67;0.00;0.00;0.62;;;;;24.70;1.00;;;;;;2256541;61;1405;-86
2023/05/30 07:47:12;103205.00;0.34;179.10;0.00;0.00;0.62;;;;;25.00;1.00;;;;;;2256407;61;1082;-86
2023/05/30 07:49:39;285956.00;0.95;493.78;0.00;0.00;0.62;;;;;24.80;1.00;;;;;;2256389;61;1142;-86
2023/05/30 07:52:06;311253.00;1.04;537.26;388.00;0.00;1.29;;;;;25.10;1.00;;;;;;2256297;61;1059;-86
2023/05/30 07:54:33;325230.00;1.08;561.29;29130.00;0.10;51.08;;;;;24.80;1.00;;;;;;2256245;61;1918;-83
2023/05/30 07:57:00;211840.00;0.71;366.30;0.00;0.00;0.62;;;;;24.70;1.00;;;;;;2256476;61;1208;-85
2023/05/30 07:59:26;103416.00;0.34;179.47;0.00;0.00;0.62;;;;;25.20;1.00;;;;;;2256451;61;1138;-84
2023/05/30 08:01:55;193453.00;0.64;334.65;0.00;0.00;0.62;;;;;25.60;1.00;;;;;;2256428;61;1139;-85
2023/05/30 08:04:22;372694.00;1.24;642.87;0.00;0.00;0.62;;;;;25.70;1.00;;;;;;2256365;61;1103;-84
2023/05/30 08:06:49;301089.00;1.00;519.79;0.00;0.00;0.62;;;;;25.60;1.00;;;;;;2256471;61;1291;-85
2023/05/30 08:09:16;197887.00;0.66;342.29;0.00;0.00;0.62;;;;;25.90;1.00;;;;;;2256458;61;1039;-85
2023/05/30 08:11:43;273988.00;0.91;473.20;0.00;0.00;0.62;;;;;25.90;1.00;;;;;;2256211;61;1102;-86
2023/05/30 08:14:10;466327.00;1.55;803.87;74639.00;0.25;129.78;;;;;26.30;1.00;;;;;;2256382;61;1916;-85
2023/05/30 08:16:37;263917.00;0.88;455.88;0.00;0.00;0.62;;;;;25.60;1.00;;;;;;2256336;61;1435;-87
2023/05/30 08:19:05;270620.00;0.90;467.41;0.00;0.00;0.62;;;;;26.30;1.00;;;;;;2256311;61;1452;-86
2023/05/30 08:21:36;182707.00;0.61;316.15;0.00;0.00;0.62;;;;;26.50;1.00;;;;;;2256313;61;1126;-84
2023/05/30 08:24:02;239992.00;0.80;414.74;0.00;0.00;0.62;;;;;26.30;1.00;;;;;;2256387;61;1087;-85
2023/05/30 08:26:31;483787.00;1.61;833.92;54960.00;0.18;95.76;;;;;25.60;1.00;;;;;;2256267;61;1299;-85
2023/05/30 08:28:59;202264.00;0.67;349.82;0.00;0.00;0.62;;;;;25.70;1.00;;;;;;2256336;61;1065;-85
2023/05/30 08:31:27;159292.00;0.53;275.82;0.00;0.00;0.62;;;;;26.20;1.00;;;;;;2256185;61;1134;-83
2023/05/30 08:33:53;177674.00;0.59;307.48;0.00;0.00;0.62;;;;;27.00;1.00;;;;;;2256028;61;1998;-85
2023/05/30 08:36:22;186401.00;0.62;322.51;0.00;0.00;0.62;;;;;27.80;1.00;;;;;;2256267;61;1408;-87
2023/05/30 08:38:54;157322.00;0.52;272.43;0.00;0.00;0.62;;;;;27.40;1.00;;;;;;2256300;61;1098;-85
2023/05/30 08:41:21;121164.00;0.40;210.09;0.00;0.00;0.62;;;;;26.70;1.00;;;;;;2256276;61;1024;-87
2023/05/30 08:43:48;383974.00;1.28;662.26;67369.00;0.22;117.21;;;;;27.00;1.00;;;;;;2256169;61;1006;-84
2023/05/30 08:46:17;176450.00;0.59;305.38;0.00;0.00;0.62;;;;;27.00;1.00;;;;;;2256270;61;1416;-85
2023/05/30 08:48:45;214906.00;0.72;371.58;0.00;0.00;0.62;;;;;26.90;1.00;;;;;;2256216;61;1152;-87
2023/05/30 08:51:15;304302.00;1.01;525.32;16438.00;0.05;29.10;;;;;26.20;1.00;;;;;;2256287;61;1118;-88
2023/05/30 08:53:49;180604.00;0.60;312.53;0.00;0.00;0.62;;;;;25.80;1.00;;;;;;2256164;61;1920;-85
2023/05/30 08:56:25;111534.00;0.37;193.48;0.00;0.00;0.62;;;;;25.60;1.00;;;;;;2256247;61;1374;-87
2023/05/30 08:58:53;97940.00;0.33;170.02;0.00;0.00;0.62;;;;;25.60;1.00;;;;;;2256163;61;1102;-86
2023/05/30 09:01:22;49915.00;0.17;87.04;0.00;0.00;0.62;;;;;25.40;1.00;;;;;;2256157;61;1583;-84
2023/05/30 09:03:51;42274.00;0.14;73.82;0.00;0.00;0.62;;;;;25.10;1.00;;;;;;2256279;61;1006;-85
2023/05/30 09:06:20;81633.00;0.27;141.86;0.00;0.00;0.62;;;;;25.40;1.00;;;;;;2256180;61;1378;-87
2023/05/30 09:08:51;306969.00;1.02;529.90;59565.00;0.20;103.72;;;;;25.20;1.00;;;;;;2256281;61;1036;-86
2023/05/30 09:11:20;0.00;0.00;0.62;0.00;0.00;0.62;;;;;25.70;1.00;;;;;;2256121;61;1504;-86
2023/05/30 09:13:48;96604.00;0.32;167.71;0.00;0.00;0.62;;;;;26.20;1.00;;;;;;2256155;61;2007;-85
2023/05/30 09:16:15;77202.00;0.26;134.20;0.00;0.00;0.62;;;;;25.70;1.00;;;;;;2256105;61;1383;-85
2023/05/30 09:18:42;154297.00;0.51;267.21;0.00;0.00;0.62;;;;;24.80;1.00;;;;;;2256138;61;1118;-86
2023/05/30 09:21:10;4313.00;0.01;8.10;0.00;0.00;0.62;;;;;24.40;1.00;;;;;;2256223;61;1115;-84
2023/05/30 09:23:37;175438.00;0.58;303.63;31752.00;0.11;55.62;;;;;24.30;1.00;;;;;;2256079;61;988;-87
2023/05/30 09:26:07;41659.00;0.14;72.76;0.00;0.00;0.62;;;;;24.60;1.00;;;;;;2256165;61;1378;-86
2023/05/30 09:28:36;42835.00;0.14;74.79;0.00;0.00;0.62;;;;;24.60;1.00;;;;;;2256185;61;1059;-85
2023/05/30 09:31:04;102224.00;0.34;177.41;31696.00;0.11;55.52;;;;;24.70;1.00;;;;;;2256309;61;930;-85
2023/05/30 09:33:50;224856.00;0.75;388.70;0.00;0.00;0.62;;;;;24.30;1.00;;;;;;2255974;61;1311;-83
2023/05/30 09:36:19;114360.00;0.38;198.35;0.00;0.00;0.62;;;;;24.30;1.00;;;;;;2255784;61;1467;-86
2023/05/30 09:38:53;24679.00;0.08;43.37;0.00;0.00;0.62;;;;;24.40;1.00;;;;;;2255929;61;948;-83
2023/05/30 09:41:22;192116.00;0.64;332.35;33149.00;0.11;58.03;;;;;24.50;1.00;;;;;;2255960;61;1193;-84
2023/05/30 11:41:54;979081.00;3.26;1695.46;0.00;0.00;0.62;;;;;24.40;1.00;;;;;;2262795;61;1014;-93
2023/05/30 13:01:57;425940.00;1.42;734.40;0.00;0.00;0.62;;;;;25.70;1.00;;;;;;2262169;61;1262;-91
2023/05/30 13:04:24;98515.00;0.33;171.01;0.00;0.00;0.62;;;;;25.30;1.00;;;;;;2260767;61;1178;-92
2023/05/30 13:06:52;338371.00;1.13;583.87;0.00;0.00;0.62;;;;;25.20;1.00;;;;;;2260304;61;1307;-94
2023/05/30 13:09:19;75714.00;0.25;131.63;0.00;0.00;0.62;;;;;25.50;1.00;;;;;;2260694;61;1167;-91
2023/05/30 13:11:47;61797.00;0.21;107.58;0.00;0.00;0.62;;;;;25.80;1.00;;;;;;2260741;61;1560;-92
2023/05/30 13:14:14;84655.00;0.28;147.08;0.00;0.00;0.62;;;;;26.00;1.00;;;;;;2260712;61;1910;-91
2023/05/30 14:05:25;1063386.00;3.54;1845.07;34026.00;0.11;59.55;;;;;26.20;1.00;;;;;;2393837;55;3687;31